sensor_id;sensor_type;location;lat;lon;timestamp;P1;durP1;ratioP1;P2;durP2;ratioP2
9115;SDS011;4593;53.652;10.168;2022-11-23T00:01:45;17.53;;;8.83;;
9115;SDS011;4593;53.652;10.168;2022-11-23T00:04:12;13.30;;;9.10;;
9115;SDS011;4593;53.652;10.168;2022-11-23T00:06:38;19.30;;;9.97;;
9115;SDS011;4593;53.652;10.168;2022-11-23T00:09:04;26.43;;;10.73;;
9115;SDS011;4593;53.652;10.168;2022-11-23T00:11:31;19.53;;;9.70;;
9115;SDS011;4593;53.652;10.168;2022-11-23T00:13:58;15.17;;;8.70;;
9115;SDS011;4593;53.652;10.168;2022-11-23T00:16:27;25.40;;;9.57;;
9115;SDS011;4593;53.652;10.168;2022-11-23T00:18:55;18.80;;;10.67;;
9115;SDS011;4593;53.652;10.168;2022-11-23T00:21:22;19.53;;;10.63;;
9115;SDS011;4593;53.652;10.168;2022-11-23T00:23:48;18.93;;;10.00;;
9115;SDS011;4593;53.652;10.168;2022-11-23T00:26:14;23.33;;;9.90;;
9115;SDS011;4593;53.652;10.168;2022-11-23T00:28:41;24.93;;;9.70;;
9115;SDS011;4593;53.652;10.168;2022-11-23T00:31:11;16.87;;;8.87;;
9115;SDS011;4593;53.652;10.168;2022-11-23T00:33:39;22.87;;;10.07;;
9115;SDS011;4593;53.652;10.168;2022-11-23T00:36:06;17.33;;;9.57;;
9115;SDS011;4593;53.652;10.168;2022-11-23T00:38:32;15.37;;;8.50;;
9115;SDS011;4593;53.652;10.168;2022-11-23T00:40:59;16.27;;;9.00;;
9115;SDS011;4593;53.652;10.168;2022-11-23T00:43:27;12.80;;;8.80;;
9115;SDS011;4593;53.652;10.168;2022-11-23T00:46:01;14.37;;;9.50;;
9115;SDS011;4593;53.652;10.168;2022-11-23T00:48:27;16.20;;;9.10;;
9115;SDS011;4593;53.652;10.168;2022-11-23T00:50:53;17.60;;;11.10;;
9115;SDS011;4593;53.652;10.168;2022-11-23T00:53:19;16.10;;;10.33;;
9115;SDS011;4593;53.652;10.168;2022-11-23T00:55:51;13.17;;;8.07;;
9115;SDS011;4593;53.652;10.168;2022-11-23T00:58:18;17.83;;;9.73;;
9115;SDS011;4593;53.652;10.168;2022-11-23T01:00:43;14.83;;;8.70;;
9115;SDS011;4593;53.652;10.168;2022-11-23T01:03:09;17.93;;;9.57;;
9115;SDS011;4593;53.652;10.168;2022-11-23T01:05:36;15.03;;;9.23;;
9115;SDS011;4593;53.652;10.168;2022-11-23T01:08:02;15.10;;;8.17;;
9115;SDS011;4593;53.652;10.168;2022-11-23T01:10:29;16.63;;;8.83;;
9115;SDS011;4593;53.652;10.168;2022-11-23T01:12:55;16.20;;;8.73;;
9115;SDS011;4593;53.652;10.168;2022-11-23T01:15:21;20.23;;;9.77;;
9115;SDS011;4593;53.652;10.168;2022-11-23T01:17:48;15.40;;;9.30;;
9115;SDS011;4593;53.652;10.168;2022-11-23T01:20:13;19.47;;;9.70;;
9115;SDS011;4593;53.652;10.168;2022-11-23T01:22:40;17.30;;;8.27;;
9115;SDS011;4593;53.652;10.168;2022-11-23T01:25:06;16.53;;;8.70;;
9115;SDS011;4593;53.652;10.168;2022-11-23T01:27:33;24.93;;;9.83;;
9115;SDS011;4593;53.652;10.168;2022-11-23T01:29:59;14.33;;;9.50;;
9115;SDS011;4593;53.652;10.168;2022-11-23T01:32:25;15.67;;;8.30;;
9115;SDS011;4593;53.652;10.168;2022-11-23T01:34:50;13.30;;;9.33;;
9115;SDS011;4593;53.652;10.168;2022-11-23T01:37:16;18.93;;;9.57;;
9115;SDS011;4593;53.652;10.168;2022-11-23T01:39:42;14.40;;;8.57;;
9115;SDS011;4593;53.652;10.168;2022-11-23T01:42:08;15.57;;;8.67;;
9115;SDS011;4593;53.652;10.168;2022-11-23T01:44:35;21.03;;;9.90;;
9115;SDS011;4593;53.652;10.168;2022-11-23T01:47:04;14.27;;;8.80;;
9115;SDS011;4593;53.652;10.168;2022-11-23T01:49:35;16.10;;;9.10;;
9115;SDS011;4593;53.652;10.168;2022-11-23T01:52:05;16.03;;;8.47;;
9115;SDS011;4593;53.652;10.168;2022-11-23T01:54:37;16.00;;;9.70;;
9115;SDS011;4593;53.652;10.168;2022-11-23T01:57:18;15.70;;;9.80;;
9115;SDS011;4593;53.652;10.168;2022-11-23T01:59:47;15.30;;;8.53;;
9115;SDS011;4593;53.652;10.168;2022-11-23T02:02:14;16.03;;;8.00;;
9115;SDS011;4593;53.652;10.168;2022-11-23T02:04:42;21.77;;;8.53;;
9115;SDS011;4593;53.652;10.168;2022-11-23T02:07:11;19.10;;;10.37;;
9115;SDS011;4593;53.652;10.168;2022-11-23T02:09:38;13.77;;;8.73;;
9115;SDS011;4593;53.652;10.168;2022-11-23T02:12:13;16.83;;;8.80;;
9115;SDS011;4593;53.652;10.168;2022-11-23T02:14:39;18.43;;;11.17;;
9115;SDS011;4593;53.652;10.168;2022-11-23T02:17:06;14.17;;;8.63;;
9115;SDS011;4593;53.652;10.168;2022-11-23T02:22:01;17.47;;;9.43;;
9115;SDS011;4593;53.652;10.168;2022-11-23T02:24:31;18.87;;;9.67;;
9115;SDS011;4593;53.652;10.168;2022-11-23T02:27:01;13.07;;;8.43;;
9115;SDS011;4593;53.652;10.168;2022-11-23T02:29:28;15.60;;;8.43;;
9115;SDS011;4593;53.652;10.168;2022-11-23T02:31:54;19.53;;;9.07;;
9115;SDS011;4593;53.652;10.168;2022-11-23T02:34:20;23.80;;;8.67;;
9115;SDS011;4593;53.652;10.168;2022-11-23T02:41:55;16.93;;;9.20;;
9115;SDS011;4593;53.652;10.168;2022-11-23T02:47:05;14.10;;;8.20;;
9115;SDS011;4593;53.652;10.168;2022-11-23T02:49:32;14.83;;;8.47;;
9115;SDS011;4593;53.652;10.168;2022-11-23T02:51:58;15.13;;;8.60;;
9115;SDS011;4593;53.652;10.168;2022-11-23T02:54:25;15.43;;;9.17;;
9115;SDS011;4593;53.652;10.168;2022-11-23T02:56:51;17.87;;;8.13;;
9115;SDS011;4593;53.652;10.168;2022-11-23T02:59:17;17.50;;;8.50;;
9115;SDS011;4593;53.652;10.168;2022-11-23T03:01:43;13.50;;;7.93;;
9115;SDS011;4593;53.652;10.168;2022-11-23T03:04:09;16.50;;;8.50;;
9115;SDS011;4593;53.652;10.168;2022-11-23T03:06:35;18.57;;;8.90;;
9115;SDS011;4593;53.652;10.168;2022-11-23T03:09:01;20.93;;;10.80;;
9115;SDS011;4593;53.652;10.168;2022-11-23T03:11:27;14.27;;;8.83;;
9115;SDS011;4593;53.652;10.168;2022-11-23T03:13:53;20.43;;;9.50;;
9115;SDS011;4593;53.652;10.168;2022-11-23T03:16:19;18.00;;;9.07;;
9115;SDS011;4593;53.652;10.168;2022-11-23T03:18:45;20.03;;;8.70;;
9115;SDS011;4593;53.652;10.168;2022-11-23T03:21:11;13.53;;;8.23;;
9115;SDS011;4593;53.652;10.168;2022-11-23T03:23:37;17.43;;;9.07;;
9115;SDS011;4593;53.652;10.168;2022-11-23T03:26:03;12.73;;;8.63;;
9115;SDS011;4593;53.652;10.168;2022-11-23T03:28:29;11.40;;;7.93;;
9115;SDS011;4593;53.652;10.168;2022-11-23T03:30:55;14.33;;;8.20;;
9115;SDS011;4593;53.652;10.168;2022-11-23T03:33:21;18.10;;;10.40;;
9115;SDS011;4593;53.652;10.168;2022-11-23T03:35:47;15.83;;;7.80;;
9115;SDS011;4593;53.652;10.168;2022-11-23T03:38:13;14.27;;;9.07;;
9115;SDS011;4593;53.652;10.168;2022-11-23T03:40:39;20.73;;;10.20;;
9115;SDS011;4593;53.652;10.168;2022-11-23T03:43:05;16.77;;;8.60;;
9115;SDS011;4593;53.652;10.168;2022-11-23T03:45:31;13.90;;;7.80;;
9115;SDS011;4593;53.652;10.168;2022-11-23T03:47:57;22.00;;;9.33;;
9115;SDS011;4593;53.652;10.168;2022-11-23T03:50:23;13.73;;;8.27;;
9115;SDS011;4593;53.652;10.168;2022-11-23T03:52:49;15.40;;;9.10;;
9115;SDS011;4593;53.652;10.168;2022-11-23T03:55:15;15.70;;;8.63;;
9115;SDS011;4593;53.652;10.168;2022-11-23T03:57:41;14.67;;;9.13;;
9115;SDS011;4593;53.652;10.168;2022-11-23T04:00:08;14.57;;;7.77;;
9115;SDS011;4593;53.652;10.168;2022-11-23T04:02:34;21.43;;;10.33;;
9115;SDS011;4593;53.652;10.168;2022-11-23T04:05:00;16.90;;;8.83;;
9115;SDS011;4593;53.652;10.168;2022-11-23T04:07:26;17.40;;;9.27;;
9115;SDS011;4593;53.652;10.168;2022-11-23T04:09:52;20.30;;;8.67;;
9115;SDS011;4593;53.652;10.168;2022-11-23T04:12:18;16.20;;;8.37;;
9115;SDS011;4593;53.652;10.168;2022-11-23T04:14:44;16.93;;;9.10;;
9115;SDS011;4593;53.652;10.168;2022-11-23T04:17:10;23.77;;;10.37;;
9115;SDS011;4593;53.652;10.168;2022-11-23T04:19:36;16.90;;;8.73;;
9115;SDS011;4593;53.652;10.168;2022-11-23T04:22:02;16.60;;;8.20;;
9115;SDS011;4593;53.652;10.168;2022-11-23T04:24:28;12.73;;;8.00;;
9115;SDS011;4593;53.652;10.168;2022-11-23T04:26:54;14.20;;;8.37;;
9115;SDS011;4593;53.652;10.168;2022-11-23T04:29:20;14.80;;;8.33;;
9115;SDS011;4593;53.652;10.168;2022-11-23T04:31:45;10.80;;;7.77;;
9115;SDS011;4593;53.652;10.168;2022-11-23T04:34:11;15.67;;;8.90;;
9115;SDS011;4593;53.652;10.168;2022-11-23T04:36:37;12.23;;;8.33;;
9115;SDS011;4593;53.652;10.168;2022-11-23T04:39:03;17.30;;;9.43;;
9115;SDS011;4593;53.652;10.168;2022-11-23T04:41:30;12.13;;;7.07;;
9115;SDS011;4593;53.652;10.168;2022-11-23T04:43:56;14.17;;;9.57;;
9115;SDS011;4593;53.652;10.168;2022-11-23T04:46:21;13.10;;;7.70;;
9115;SDS011;4593;53.652;10.168;2022-11-23T04:48:48;19.80;;;7.93;;
9115;SDS011;4593;53.652;10.168;2022-11-23T04:51:13;14.97;;;8.00;;
9115;SDS011;4593;53.652;10.168;2022-11-23T04:53:40;17.97;;;9.73;;
9115;SDS011;4593;53.652;10.168;2022-11-23T04:56:06;15.50;;;8.97;;
9115;SDS011;4593;53.652;10.168;2022-11-23T04:58:32;12.23;;;7.60;;
9115;SDS011;4593;53.652;10.168;2022-11-23T05:01:00;14.80;;;8.33;;
9115;SDS011;4593;53.652;10.168;2022-11-23T05:03:26;18.43;;;9.67;;
9115;SDS011;4593;53.652;10.168;2022-11-23T05:05:53;13.03;;;8.70;;
9115;SDS011;4593;53.652;10.168;2022-11-23T05:08:19;13.63;;;8.10;;
9115;SDS011;4593;53.652;10.168;2022-11-23T05:10:44;16.30;;;9.23;;
9115;SDS011;4593;53.652;10.168;2022-11-23T05:13:10;13.30;;;7.73;;
9115;SDS011;4593;53.652;10.168;2022-11-23T05:15:36;11.33;;;7.50;;
9115;SDS011;4593;53.652;10.168;2022-11-23T05:18:03;13.43;;;8.20;;
9115;SDS011;4593;53.652;10.168;2022-11-23T05:20:34;16.17;;;7.87;;
9115;SDS011;4593;53.652;10.168;2022-11-23T05:23:00;14.77;;;7.80;;
9115;SDS011;4593;53.652;10.168;2022-11-23T05:25:26;13.07;;;7.07;;
9115;SDS011;4593;53.652;10.168;2022-11-23T05:27:52;16.40;;;7.10;;
9115;SDS011;4593;53.652;10.168;2022-11-23T05:30:18;10.80;;;7.03;;
9115;SDS011;4593;53.652;10.168;2022-11-23T05:32:44;12.57;;;6.87;;
9115;SDS011;4593;53.652;10.168;2022-11-23T05:35:11;12.10;;;7.97;;
9115;SDS011;4593;53.652;10.168;2022-11-23T05:37:37;10.73;;;7.80;;
9115;SDS011;4593;53.652;10.168;2022-11-23T05:40:03;11.93;;;7.70;;
9115;SDS011;4593;53.652;10.168;2022-11-23T05:42:29;9.00;;;6.63;;
9115;SDS011;4593;53.652;10.168;2022-11-23T05:44:55;15.60;;;8.03;;
9115;SDS011;4593;53.652;10.168;2022-11-23T05:47:21;17.47;;;9.20;;
9115;SDS011;4593;53.652;10.168;2022-11-23T05:49:48;13.30;;;7.73;;
9115;SDS011;4593;53.652;10.168;2022-11-23T05:52:15;10.13;;;7.57;;
9115;SDS011;4593;53.652;10.168;2022-11-23T05:54:41;12.27;;;8.37;;
9115;SDS011;4593;53.652;10.168;2022-11-23T05:57:07;15.17;;;8.17;;
9115;SDS011;4593;53.652;10.168;2022-11-23T05:59:33;7.73;;;6.17;;
9115;SDS011;4593;53.652;10.168;2022-11-23T06:01:59;11.53;;;6.10;;
9115;SDS011;4593;53.652;10.168;2022-11-23T06:04:25;14.47;;;6.50;;
9115;SDS011;4593;53.652;10.168;2022-11-23T06:06:51;12.83;;;7.70;;
9115;SDS011;4593;53.652;10.168;2022-11-23T06:09:24;9.70;;;6.43;;
9115;SDS011;4593;53.652;10.168;2022-11-23T06:11:53;14.93;;;7.67;;
9115;SDS011;4593;53.652;10.168;2022-11-23T06:14:19;10.43;;;7.03;;
9115;SDS011;4593;53.652;10.168;2022-11-23T06:16:45;11.77;;;7.17;;
9115;SDS011;4593;53.652;10.168;2022-11-23T06:19:12;13.33;;;7.40;;
9115;SDS011;4593;53.652;10.168;2022-11-23T06:21:38;8.27;;;5.73;;
9115;SDS011;4593;53.652;10.168;2022-11-23T06:24:04;14.73;;;6.63;;
9115;SDS011;4593;53.652;10.168;2022-11-23T06:26:30;10.60;;;7.13;;
9115;SDS011;4593;53.652;10.168;2022-11-23T06:28:56;10.47;;;6.77;;
9115;SDS011;4593;53.652;10.168;2022-11-23T06:31:22;11.03;;;7.33;;
9115;SDS011;4593;53.652;10.168;2022-11-23T06:33:50;13.83;;;6.93;;
9115;SDS011;4593;53.652;10.168;2022-11-23T06:36:16;10.17;;;5.50;;
9115;SDS011;4593;53.652;10.168;2022-11-23T06:38:42;14.17;;;7.93;;
9115;SDS011;4593;53.652;10.168;2022-11-23T06:41:08;10.97;;;7.23;;
9115;SDS011;4593;53.652;10.168;2022-11-23T06:43:34;11.10;;;7.10;;
9115;SDS011;4593;53.652;10.168;2022-11-23T06:46:04;12.30;;;7.10;;
9115;SDS011;4593;53.652;10.168;2022-11-23T06:48:30;12.90;;;7.57;;
9115;SDS011;4593;53.652;10.168;2022-11-23T06:50:57;11.10;;;6.73;;
9115;SDS011;4593;53.652;10.168;2022-11-23T06:53:24;10.73;;;7.30;;
9115;SDS011;4593;53.652;10.168;2022-11-23T06:55:50;12.00;;;7.20;;
9115;SDS011;4593;53.652;10.168;2022-11-23T06:58:16;10.47;;;6.90;;
9115;SDS011;4593;53.652;10.168;2022-11-23T07:00:42;7.80;;;6.63;;
9115;SDS011;4593;53.652;10.168;2022-11-23T07:03:19;6.60;;;5.57;;
9115;SDS011;4593;53.652;10.168;2022-11-23T07:05:45;13.07;;;6.30;;
9115;SDS011;4593;53.652;10.168;2022-11-23T07:08:11;10.93;;;5.57;;
9115;SDS011;4593;53.652;10.168;2022-11-23T07:10:38;10.27;;;6.20;;
9115;SDS011;4593;53.652;10.168;2022-11-23T07:13:04;12.47;;;6.93;;
9115;SDS011;4593;53.652;10.168;2022-11-23T07:15:31;12.63;;;7.03;;
9115;SDS011;4593;53.652;10.168;2022-11-23T07:17:57;10.77;;;6.97;;
9115;SDS011;4593;53.652;10.168;2022-11-23T07:20:22;12.70;;;6.27;;
9115;SDS011;4593;53.652;10.168;2022-11-23T07:22:50;11.80;;;6.20;;
9115;SDS011;4593;53.652;10.168;2022-11-23T07:25:33;12.23;;;7.10;;
9115;SDS011;4593;53.652;10.168;2022-11-23T07:28:00;10.67;;;6.50;;
9115;SDS011;4593;53.652;10.168;2022-11-23T07:30:26;10.43;;;7.30;;
9115;SDS011;4593;53.652;10.168;2022-11-23T07:32:55;12.97;;;6.67;;
9115;SDS011;4593;53.652;10.168;2022-11-23T07:35:26;11.17;;;7.27;;
9115;SDS011;4593;53.652;10.168;2022-11-23T07:37:53;9.43;;;6.33;;
9115;SDS011;4593;53.652;10.168;2022-11-23T07:40:19;11.67;;;7.47;;
9115;SDS011;4593;53.652;10.168;2022-11-23T07:42:44;9.73;;;6.10;;
9115;SDS011;4593;53.652;10.168;2022-11-23T07:45:10;12.03;;;6.70;;
9115;SDS011;4593;53.652;10.168;2022-11-23T07:47:37;12.20;;;7.20;;
9115;SDS011;4593;53.652;10.168;2022-11-23T07:50:04;9.13;;;6.70;;
9115;SDS011;4593;53.652;10.168;2022-11-23T07:52:30;7.37;;;5.83;;
9115;SDS011;4593;53.652;10.168;2022-11-23T07:54:56;9.83;;;5.40;;
9115;SDS011;4593;53.652;10.168;2022-11-23T07:57:24;7.83;;;6.17;;
9115;SDS011;4593;53.652;10.168;2022-11-23T07:59:50;7.60;;;5.73;;
9115;SDS011;4593;53.652;10.168;2022-11-23T08:02:15;13.73;;;7.40;;
9115;SDS011;4593;53.652;10.168;2022-11-23T08:04:41;15.17;;;6.93;;
9115;SDS011;4593;53.652;10.168;2022-11-23T08:07:07;13.33;;;6.00;;
9115;SDS011;4593;53.652;10.168;2022-11-23T08:09:33;11.03;;;7.13;;
9115;SDS011;4593;53.652;10.168;2022-11-23T08:11:59;11.70;;;6.90;;
9115;SDS011;4593;53.652;10.168;2022-11-23T08:14:25;9.43;;;6.47;;
9115;SDS011;4593;53.652;10.168;2022-11-23T08:16:51;9.40;;;5.77;;
9115;SDS011;4593;53.652;10.168;2022-11-23T08:19:17;8.20;;;6.07;;
9115;SDS011;4593;53.652;10.168;2022-11-23T08:21:44;12.03;;;5.97;;
9115;SDS011;4593;53.652;10.168;2022-11-23T08:24:10;13.10;;;7.50;;
9115;SDS011;4593;53.652;10.168;2022-11-23T08:26:36;18.77;;;5.57;;
9115;SDS011;4593;53.652;10.168;2022-11-23T08:29:02;7.53;;;5.47;;
9115;SDS011;4593;53.652;10.168;2022-11-23T08:31:28;9.43;;;6.33;;
9115;SDS011;4593;53.652;10.168;2022-11-23T08:33:54;8.97;;;6.53;;
9115;SDS011;4593;53.652;10.168;2022-11-23T08:36:20;8.17;;;5.60;;
9115;SDS011;4593;53.652;10.168;2022-11-23T08:38:46;12.90;;;6.73;;
9115;SDS011;4593;53.652;10.168;2022-11-23T08:41:15;9.20;;;6.13;;
9115;SDS011;4593;53.652;10.168;2022-11-23T08:43:45;9.37;;;6.50;;
9115;SDS011;4593;53.652;10.168;2022-11-23T08:46:11;12.43;;;6.20;;
9115;SDS011;4593;53.652;10.168;2022-11-23T08:48:36;8.03;;;6.00;;
9115;SDS011;4593;53.652;10.168;2022-11-23T08:51:02;11.10;;;5.97;;
9115;SDS011;4593;53.652;10.168;2022-11-23T08:53:28;6.37;;;5.73;;
9115;SDS011;4593;53.652;10.168;2022-11-23T08:55:55;15.40;;;6.13;;
9115;SDS011;4593;53.652;10.168;2022-11-23T08:58:22;9.73;;;6.10;;
9115;SDS011;4593;53.652;10.168;2022-11-23T09:00:48;10.10;;;5.83;;
9115;SDS011;4593;53.652;10.168;2022-11-23T09:03:14;9.30;;;6.00;;
9115;SDS011;4593;53.652;10.168;2022-11-23T09:05:39;11.97;;;6.33;;
9115;SDS011;4593;53.652;10.168;2022-11-23T09:08:05;14.70;;;6.77;;
9115;SDS011;4593;53.652;10.168;2022-11-23T09:10:32;9.50;;;6.07;;
9115;SDS011;4593;53.652;10.168;2022-11-23T09:12:59;10.53;;;6.33;;
9115;SDS011;4593;53.652;10.168;2022-11-23T09:15:25;10.33;;;5.43;;
9115;SDS011;4593;53.652;10.168;2022-11-23T09:17:51;12.33;;;6.33;;
9115;SDS011;4593;53.652;10.168;2022-11-23T09:20:17;12.13;;;5.93;;
9115;SDS011;4593;53.652;10.168;2022-11-23T09:22:43;7.40;;;6.03;;
9115;SDS011;4593;53.652;10.168;2022-11-23T09:25:15;14.37;;;6.03;;
9115;SDS011;4593;53.652;10.168;2022-11-23T09:27:41;10.27;;;5.47;;
9115;SDS011;4593;53.652;10.168;2022-11-23T09:30:07;12.70;;;5.50;;
9115;SDS011;4593;53.652;10.168;2022-11-23T09:32:33;10.07;;;6.07;;
9115;SDS011;4593;53.652;10.168;2022-11-23T09:34:59;7.63;;;5.43;;
9115;SDS011;4593;53.652;10.168;2022-11-23T09:37:25;8.60;;;5.97;;
9115;SDS011;4593;53.652;10.168;2022-11-23T09:39:51;5.97;;;4.80;;
9115;SDS011;4593;53.652;10.168;2022-11-23T09:47:35;7.20;;;5.87;;
9115;SDS011;4593;53.652;10.168;2022-11-23T09:52:36;8.97;;;4.70;;
9115;SDS011;4593;53.652;10.168;2022-11-23T09:55:26;7.10;;;5.20;;
9115;SDS011;4593;53.652;10.168;2022-11-23T09:57:55;6.30;;;5.03;;
9115;SDS011;4593;53.652;10.168;2022-11-23T10:00:22;8.60;;;4.70;;
9115;SDS011;4593;53.652;10.168;2022-11-23T10:02:49;8.43;;;5.70;;
9115;SDS011;4593;53.652;10.168;2022-11-23T10:05:16;6.13;;;4.77;;
9115;SDS011;4593;53.652;10.168;2022-11-23T10:10:33;11.63;;;5.27;;
9115;SDS011;4593;53.652;10.168;2022-11-23T10:13:10;7.83;;;5.37;;
9115;SDS011;4593;53.652;10.168;2022-11-23T10:16:18;5.73;;;4.50;;
9115;SDS011;4593;53.652;10.168;2022-11-23T10:18:45;9.87;;;5.17;;
9115;SDS011;4593;53.652;10.168;2022-11-23T10:21:17;9.57;;;5.17;;
9115;SDS011;4593;53.652;10.168;2022-11-23T10:23:59;5.23;;;4.40;;
9115;SDS011;4593;53.652;10.168;2022-11-23T10:26:46;9.47;;;4.90;;
9115;SDS011;4593;53.652;10.168;2022-11-23T10:31:40;8.10;;;5.03;;
9115;SDS011;4593;53.652;10.168;2022-11-23T10:34:11;7.77;;;4.90;;
9115;SDS011;4593;53.652;10.168;2022-11-23T10:36:39;8.00;;;4.30;;
9115;SDS011;4593;53.652;10.168;2022-11-23T10:39:23;5.87;;;4.10;;
9115;SDS011;4593;53.652;10.168;2022-11-23T10:41:50;5.60;;;3.90;;
9115;SDS011;4593;53.652;10.168;2022-11-23T10:46:42;6.63;;;4.03;;
9115;SDS011;4593;53.652;10.168;2022-11-23T10:51:34;6.23;;;3.50;;
9115;SDS011;4593;53.652;10.168;2022-11-23T10:54:05;5.00;;;4.13;;
9115;SDS011;4593;53.652;10.168;2022-11-23T10:56:48;4.80;;;3.83;;
9115;SDS011;4593;53.652;10.168;2022-11-23T10:59:37;6.70;;;3.80;;
9115;SDS011;4593;53.652;10.168;2022-11-23T11:02:18;5.33;;;4.03;;
9115;SDS011;4593;53.652;10.168;2022-11-23T11:04:46;12.47;;;4.50;;
9115;SDS011;4593;53.652;10.168;2022-11-23T11:09:41;5.57;;;3.93;;
9115;SDS011;4593;53.652;10.168;2022-11-23T11:12:16;8.13;;;4.17;;
9115;SDS011;4593;53.652;10.168;2022-11-23T11:14:55;4.63;;;3.80;;
9115;SDS011;4593;53.652;10.168;2022-11-23T11:17:27;5.37;;;3.97;;
9115;SDS011;4593;53.652;10.168;2022-11-23T11:19:54;10.83;;;4.73;;
9115;SDS011;4593;53.652;10.168;2022-11-23T11:22:33;4.90;;;3.87;;
9115;SDS011;4593;53.652;10.168;2022-11-23T11:25:03;5.40;;;4.17;;
9115;SDS011;4593;53.652;10.168;2022-11-23T11:27:30;8.70;;;4.67;;
9115;SDS011;4593;53.652;10.168;2022-11-23T11:30:06;7.33;;;3.83;;
9115;SDS011;4593;53.652;10.168;2022-11-23T11:35:14;7.53;;;4.30;;
9115;SDS011;4593;53.652;10.168;2022-11-23T11:37:43;11.03;;;4.63;;
9115;SDS011;4593;53.652;10.168;2022-11-23T11:42:42;5.10;;;4.43;;
9115;SDS011;4593;53.652;10.168;2022-11-23T11:45:31;10.87;;;4.37;;
9115;SDS011;4593;53.652;10.168;2022-11-23T11:48:01;6.80;;;4.40;;
9115;SDS011;4593;53.652;10.168;2022-11-23T11:50:31;5.50;;;3.87;;
9115;SDS011;4593;53.652;10.168;2022-11-23T11:53:07;6.47;;;4.67;;
9115;SDS011;4593;53.652;10.168;2022-11-23T11:58:11;5.70;;;4.37;;
9115;SDS011;4593;53.652;10.168;2022-11-23T12:00:38;6.03;;;4.40;;
9115;SDS011;4593;53.652;10.168;2022-11-23T12:05:47;9.07;;;4.77;;
9115;SDS011;4593;53.652;10.168;2022-11-23T12:08:19;5.70;;;4.27;;
9115;SDS011;4593;53.652;10.168;2022-11-23T12:11:10;5.33;;;3.87;;
9115;SDS011;4593;53.652;10.168;2022-11-23T12:13:37;5.57;;;4.33;;
9115;SDS011;4593;53.652;10.168;2022-11-23T12:31:41;7.27;;;4.83;;
9115;SDS011;4593;53.652;10.168;2022-11-23T12:34:13;7.00;;;4.83;;
9115;SDS011;4593;53.652;10.168;2022-11-23T12:37:00;6.83;;;4.13;;
9115;SDS011;4593;53.652;10.168;2022-11-23T12:58:25;4.83;;;3.77;;
9115;SDS011;4593;53.652;10.168;2022-11-23T13:00:56;4.87;;;3.83;;
9115;SDS011;4593;53.652;10.168;2022-11-23T13:09:05;5.83;;;4.20;;
9115;SDS011;4593;53.652;10.168;2022-11-23T13:16:37;5.20;;;4.20;;
9115;SDS011;4593;53.652;10.168;2022-11-23T13:24:00;4.17;;;3.63;;
9115;SDS011;4593;53.652;10.168;2022-11-23T13:26:26;4.97;;;3.73;;
9115;SDS011;4593;53.652;10.168;2022-11-23T13:28:55;4.07;;;3.30;;
9115;SDS011;4593;53.652;10.168;2022-11-23T13:31:26;7.53;;;4.03;;
9115;SDS011;4593;53.652;10.168;2022-11-23T13:33:55;3.97;;;3.57;;
9115;SDS011;4593;53.652;10.168;2022-11-23T13:38:55;5.27;;;3.87;;
9115;SDS011;4593;53.652;10.168;2022-11-23T13:46:56;3.77;;;3.47;;
9115;SDS011;4593;53.652;10.168;2022-11-23T13:57:33;4.07;;;3.43;;
9115;SDS011;4593;53.652;10.168;2022-11-23T14:08:14;5.63;;;3.30;;
9115;SDS011;4593;53.652;10.168;2022-11-23T14:10:42;4.60;;;3.17;;
9115;SDS011;4593;53.652;10.168;2022-11-23T14:13:13;5.60;;;3.00;;
9115;SDS011;4593;53.652;10.168;2022-11-23T14:15:54;5.40;;;4.10;;
9115;SDS011;4593;53.652;10.168;2022-11-23T14:26:20;3.50;;;2.93;;
9115;SDS011;4593;53.652;10.168;2022-11-23T14:34:35;6.97;;;3.40;;
9115;SDS011;4593;53.652;10.168;2022-11-23T14:37:45;6.67;;;3.40;;
9115;SDS011;4593;53.652;10.168;2022-11-23T14:42:43;3.57;;;2.93;;
9115;SDS011;4593;53.652;10.168;2022-11-23T14:45:15;6.27;;;3.60;;
9115;SDS011;4593;53.652;10.168;2022-11-23T14:47:41;7.00;;;3.60;;
9115;SDS011;4593;53.652;10.168;2022-11-23T14:50:20;5.97;;;3.83;;
9115;SDS011;4593;53.652;10.168;2022-11-23T14:52:47;7.47;;;3.60;;
9115;SDS011;4593;53.652;10.168;2022-11-23T14:55:19;5.50;;;4.07;;
9115;SDS011;4593;53.652;10.168;2022-11-23T14:57:51;6.40;;;3.57;;
9115;SDS011;4593;53.652;10.168;2022-11-23T15:02:59;4.10;;;3.73;;
9115;SDS011;4593;53.652;10.168;2022-11-23T15:05:31;4.80;;;3.50;;
9115;SDS011;4593;53.652;10.168;2022-11-23T15:08:14;10.10;;;3.70;;
9115;SDS011;4593;53.652;10.168;2022-11-23T15:13:43;6.33;;;3.70;;
9115;SDS011;4593;53.652;10.168;2022-11-23T15:16:13;3.97;;;3.07;;
9115;SDS011;4593;53.652;10.168;2022-11-23T15:18:40;7.07;;;4.20;;
9115;SDS011;4593;53.652;10.168;2022-11-23T15:23:42;6.80;;;4.07;;
9115;SDS011;4593;53.652;10.168;2022-11-23T15:26:16;5.63;;;3.80;;
9115;SDS011;4593;53.652;10.168;2022-11-23T15:28:43;9.37;;;4.17;;
9115;SDS011;4593;53.652;10.168;2022-11-23T15:31:23;7.30;;;3.67;;
9115;SDS011;4593;53.652;10.168;2022-11-23T15:33:52;6.87;;;4.20;;
9115;SDS011;4593;53.652;10.168;2022-11-23T15:36:23;4.57;;;3.37;;
9115;SDS011;4593;53.652;10.168;2022-11-23T15:38:50;4.63;;;4.23;;
9115;SDS011;4593;53.652;10.168;2022-11-23T15:41:17;4.63;;;3.57;;
9115;SDS011;4593;53.652;10.168;2022-11-23T15:43:52;5.00;;;4.20;;
9115;SDS011;4593;53.652;10.168;2022-11-23T15:46:23;9.03;;;4.07;;
9115;SDS011;4593;53.652;10.168;2022-11-23T15:48:54;8.27;;;3.93;;
9115;SDS011;4593;53.652;10.168;2022-11-23T15:51:28;6.37;;;4.20;;
9115;SDS011;4593;53.652;10.168;2022-11-23T15:53:57;11.27;;;4.17;;
9115;SDS011;4593;53.652;10.168;2022-11-23T15:56:33;7.93;;;4.83;;
9115;SDS011;4593;53.652;10.168;2022-11-23T15:59:00;15.07;;;4.47;;
9115;SDS011;4593;53.652;10.168;2022-11-23T16:01:27;13.17;;;4.70;;
9115;SDS011;4593;53.652;10.168;2022-11-23T16:03:54;5.17;;;3.60;;
9115;SDS011;4593;53.652;10.168;2022-11-23T16:08:57;6.30;;;3.97;;
9115;SDS011;4593;53.652;10.168;2022-11-23T16:11:30;4.77;;;4.13;;
9115;SDS011;4593;53.652;10.168;2022-11-23T16:14:10;9.73;;;4.13;;
9115;SDS011;4593;53.652;10.168;2022-11-23T16:16:41;5.07;;;3.77;;
9115;SDS011;4593;53.652;10.168;2022-11-23T16:19:27;8.10;;;4.30;;
9115;SDS011;4593;53.652;10.168;2022-11-23T16:21:58;9.67;;;4.87;;
9115;SDS011;4593;53.652;10.168;2022-11-23T16:24:29;7.23;;;4.23;;
9115;SDS011;4593;53.652;10.168;2022-11-23T16:26:57;8.80;;;4.03;;
9115;SDS011;4593;53.652;10.168;2022-11-23T16:29:27;4.37;;;3.97;;
9115;SDS011;4593;53.652;10.168;2022-11-23T16:32:00;5.10;;;4.13;;
9115;SDS011;4593;53.652;10.168;2022-11-23T16:34:29;6.10;;;4.77;;
9115;SDS011;4593;53.652;10.168;2022-11-23T16:36:55;5.63;;;4.23;;
9115;SDS011;4593;53.652;10.168;2022-11-23T16:39:24;7.00;;;4.43;;
9115;SDS011;4593;53.652;10.168;2022-11-23T16:41:51;8.60;;;4.40;;
9115;SDS011;4593;53.652;10.168;2022-11-23T16:44:17;10.07;;;5.03;;
9115;SDS011;4593;53.652;10.168;2022-11-23T16:46:44;6.33;;;4.00;;
9115;SDS011;4593;53.652;10.168;2022-11-23T16:49:15;7.23;;;3.93;;
9115;SDS011;4593;53.652;10.168;2022-11-23T16:51:42;6.23;;;4.73;;
9115;SDS011;4593;53.652;10.168;2022-11-23T16:54:08;4.70;;;4.20;;
9115;SDS011;4593;53.652;10.168;2022-11-23T16:56:34;11.73;;;4.33;;
9115;SDS011;4593;53.652;10.168;2022-11-23T16:59:00;5.33;;;3.80;;
9115;SDS011;4593;53.652;10.168;2022-11-23T17:01:26;5.93;;;4.43;;
9115;SDS011;4593;53.652;10.168;2022-11-23T17:03:54;6.10;;;4.27;;
9115;SDS011;4593;53.652;10.168;2022-11-23T17:06:20;5.07;;;4.37;;
9115;SDS011;4593;53.652;10.168;2022-11-23T17:08:49;6.80;;;4.87;;
9115;SDS011;4593;53.652;10.168;2022-11-23T17:11:22;5.67;;;4.37;;
9115;SDS011;4593;53.652;10.168;2022-11-23T17:13:49;8.87;;;4.73;;
9115;SDS011;4593;53.652;10.168;2022-11-23T17:16:19;8.20;;;4.73;;
9115;SDS011;4593;53.652;10.168;2022-11-23T17:18:46;4.43;;;3.77;;
9115;SDS011;4593;53.652;10.168;2022-11-23T17:21:12;5.30;;;3.67;;
9115;SDS011;4593;53.652;10.168;2022-11-23T17:23:38;4.60;;;4.20;;